createdAt,value
2023-04-16T00:00:59.735Z,2.87
2023-04-16T00:03:28.048Z,4.87
2023-04-16T00:05:56.883Z,3.20
2023-04-16T00:08:25.540Z,3.17
2023-04-16T00:10:55.686Z,2.90
2023-04-16T00:13:23.652Z,2.67
2023-04-16T00:15:51.574Z,2.70
2023-04-16T00:18:21.180Z,3.33
2023-04-16T00:20:49.360Z,2.00
2023-04-16T00:23:17.372Z,1.30
2023-04-16T00:25:45.326Z,1.03
2023-04-16T00:28:14.687Z,2.13
2023-04-16T00:30:42.719Z,1.23
2023-04-16T00:33:10.763Z,1.10
2023-04-16T00:35:38.722Z,1.03
2023-04-16T00:38:06.655Z,1.70
2023-04-16T00:40:34.595Z,1.50
2023-04-16T00:43:02.573Z,0.83
2023-04-16T00:45:31.875Z,1.33
2023-04-16T00:48:00.628Z,1.10
2023-04-16T00:50:28.704Z,1.50
2023-04-16T00:52:56.680Z,1.30
2023-04-16T00:55:24.709Z,1.37
2023-04-16T00:57:52.683Z,1.27
2023-04-16T01:00:21.652Z,1.30
2023-04-16T01:02:51.096Z,1.57
2023-04-16T01:05:19.269Z,1.13
2023-04-16T01:07:47.236Z,1.63
2023-04-16T01:10:15.207Z,1.60
2023-04-16T01:12:43.165Z,1.77
2023-04-16T01:15:11.953Z,1.40
2023-04-16T01:17:40.041Z,1.57
2023-04-16T01:20:10.156Z,1.47
2023-04-16T01:22:39.498Z,1.43
2023-04-16T01:25:07.803Z,1.50
2023-04-16T01:27:37.607Z,1.57
2023-04-16T01:30:07.014Z,1.70
2023-04-16T01:32:34.972Z,1.70
2023-04-16T01:35:02.970Z,1.70
2023-04-16T01:37:31.030Z,1.93
2023-04-16T01:40:00.435Z,1.80
2023-04-16T01:42:28.419Z,2.00
2023-04-16T01:44:56.364Z,2.10
2023-04-16T01:47:24.398Z,1.90
2023-04-16T01:49:52.432Z,2.20
2023-04-16T01:52:20.339Z,2.50
2023-04-16T01:54:48.279Z,2.30
2023-04-16T01:57:17.589Z,2.17
2023-04-16T01:59:45.496Z,2.33
2023-04-16T02:02:14.650Z,2.87
2023-04-16T02:04:43.283Z,2.20
2023-04-16T02:07:11.286Z,2.33
2023-04-16T02:09:39.656Z,2.40
2023-04-16T02:12:07.780Z,2.07
2023-04-16T02:14:37.184Z,2.27
2023-04-16T02:17:05.164Z,2.03
2023-04-16T02:19:33.134Z,1.33
2023-04-16T02:22:01.740Z,1.60
2023-04-16T02:24:29.649Z,2.30
2023-04-16T02:26:58.269Z,1.40
2023-04-16T02:29:26.248Z,2.70
2023-04-16T02:31:55.599Z,2.07
2023-04-16T02:34:23.599Z,2.83
2023-04-16T02:36:51.537Z,1.90
2023-04-16T02:39:20.032Z,1.60
2023-04-16T02:41:47.998Z,1.80
2023-04-16T02:44:16.012Z,2.33
2023-04-16T02:46:43.941Z,2.30
2023-04-16T02:49:13.267Z,2.23
2023-04-16T02:51:41.245Z,2.30
2023-04-16T02:54:09.194Z,2.80
2023-04-16T02:56:37.164Z,2.40
2023-04-16T02:59:05.238Z,2.77
2023-04-16T03:01:33.255Z,3.23
2023-04-16T03:04:01.328Z,2.93
2023-04-16T03:06:31.482Z,3.50
2023-04-16T03:08:59.460Z,4.77
2023-04-16T03:11:27.404Z,5.37
2023-04-16T03:13:55.506Z,3.63
2023-04-16T03:16:23.564Z,2.73
2023-04-16T03:18:51.561Z,3.23
2023-04-16T03:21:19.571Z,3.03
2023-04-16T03:23:49.055Z,2.20
2023-04-16T03:26:17.014Z,3.17
2023-04-16T03:28:44.949Z,2.63
2023-04-16T03:31:13.135Z,3.73
2023-04-16T03:33:41.340Z,2.70
2023-04-16T03:36:10.052Z,2.93
2023-04-16T03:38:37.983Z,2.53
2023-04-16T03:41:07.429Z,3.10
2023-04-16T03:43:35.403Z,5.53
2023-04-16T03:46:03.402Z,3.53
2023-04-16T03:48:31.355Z,4.33
2023-04-16T03:50:59.305Z,3.37
2023-04-16T03:53:27.228Z,4.40
2023-04-16T03:55:55.416Z,4.70
2023-04-16T03:58:24.750Z,3.20
2023-04-16T04:00:54.935Z,4.30
2023-04-16T04:03:23.081Z,3.50
2023-04-16T04:05:51.312Z,2.47
2023-04-16T04:08:19.299Z,2.33
2023-04-16T04:10:47.201Z,2.43
2023-04-16T04:13:15.170Z,2.53
2023-04-16T04:15:45.170Z,1.50
2023-04-16T04:18:13.091Z,1.70
2023-04-16T04:20:41.331Z,1.67
2023-04-16T04:23:09.298Z,1.23
2023-04-16T04:25:37.239Z,1.70
2023-04-16T04:28:05.441Z,2.43
2023-04-16T04:30:33.589Z,2.00
2023-04-16T04:33:02.991Z,2.07
2023-04-16T04:35:30.966Z,2.40
2023-04-16T04:37:58.932Z,1.73
2023-04-16T04:40:26.922Z,2.00
2023-04-16T04:42:55.091Z,1.50
2023-04-16T04:45:25.503Z,1.43
2023-04-16T04:47:53.700Z,1.43
2023-04-16T04:50:23.091Z,2.07
2023-04-16T04:52:51.065Z,2.00
2023-04-16T04:55:19.265Z,2.07
2023-04-16T04:57:47.157Z,1.57
2023-04-16T05:00:15.206Z,1.57
2023-04-16T05:02:43.343Z,1.93
2023-04-16T05:05:11.453Z,2.37
2023-04-16T05:07:40.762Z,1.80
2023-04-16T05:10:10.221Z,2.50
2023-04-16T05:12:38.187Z,1.33
2023-04-16T05:15:06.804Z,1.60
2023-04-16T05:17:34.776Z,2.10
2023-04-16T05:20:02.777Z,1.73
2023-04-16T05:22:30.694Z,1.60
2023-04-16T05:25:00.049Z,1.77
2023-04-16T05:27:28.024Z,2.10
2023-04-16T05:29:55.992Z,2.40
2023-04-16T05:32:26.906Z,2.70
2023-04-16T05:34:55.051Z,2.40
2023-04-16T05:37:23.005Z,1.60
2023-04-16T05:39:51.234Z,1.87
2023-04-16T05:42:20.577Z,1.40
2023-04-16T05:44:48.531Z,2.30
2023-04-16T05:47:17.558Z,2.10
2023-04-16T05:49:45.520Z,1.57
2023-04-16T05:52:13.479Z,1.60
2023-04-16T05:54:41.440Z,1.13
2023-04-16T05:57:09.432Z,1.90
2023-04-16T05:59:38.730Z,1.53
2023-04-16T06:02:06.748Z,1.83
2023-04-16T06:04:35.779Z,1.37
2023-04-16T06:07:03.760Z,1.33
2023-04-16T06:09:31.749Z,1.77
2023-04-16T06:11:59.719Z,2.27
2023-04-16T06:14:27.665Z,1.83
2023-04-16T06:16:57.041Z,2.40
2023-04-16T06:19:25.094Z,2.90
2023-04-16T06:21:54.014Z,2.13
2023-04-16T06:24:22.106Z,2.03
2023-04-16T06:26:50.077Z,1.87
2023-04-16T06:29:18.015Z,2.43
2023-04-16T06:31:45.972Z,1.77
2023-04-16T06:34:15.346Z,2.70
2023-04-16T06:36:43.264Z,1.60
2023-04-16T06:39:11.550Z,1.80
2023-04-16T06:41:39.729Z,1.83
2023-04-16T06:44:07.689Z,1.87
2023-04-16T06:46:35.826Z,1.90
2023-04-16T06:49:03.785Z,2.33
2023-04-16T06:51:33.107Z,2.40
2023-04-16T06:54:01.147Z,2.60
2023-04-16T06:56:30.323Z,2.77
2023-04-16T06:58:59.082Z,2.20
2023-04-16T07:01:27.125Z,2.80
2023-04-16T07:03:55.778Z,2.10
2023-04-16T07:06:23.895Z,2.10
2023-04-16T07:08:53.192Z,1.83
2023-04-16T07:11:21.200Z,2.07
2023-04-16T07:13:50.166Z,2.93
2023-04-16T07:16:18.940Z,2.63
2023-04-16T07:18:46.958Z,2.37
2023-04-16T07:21:14.899Z,3.50
2023-04-16T07:23:42.937Z,2.43
2023-04-16T07:26:12.688Z,2.67
2023-04-16T07:28:40.687Z,2.83
2023-04-16T07:31:09.369Z,3.13
2023-04-16T07:33:37.305Z,4.10
2023-04-16T07:36:05.667Z,4.73
2023-04-16T07:38:34.727Z,3.97
2023-04-16T07:41:02.610Z,3.70
2023-04-16T07:43:31.910Z,3.97
2023-04-16T07:45:59.859Z,4.00
2023-04-16T07:48:27.976Z,3.30
2023-04-16T07:50:55.908Z,4.37
2023-04-16T07:53:23.881Z,4.17
2023-04-16T07:55:51.853Z,4.00
2023-04-16T07:58:19.767Z,3.53
2023-04-16T08:00:50.858Z,3.90
2023-04-16T08:03:19.150Z,4.43
2023-04-16T08:05:47.177Z,4.03
2023-04-16T08:08:15.133Z,3.80
2023-04-16T08:10:43.100Z,5.07
2023-04-16T08:13:11.117Z,4.77
2023-04-16T08:15:39.110Z,5.07
2023-04-16T08:18:12.960Z,4.67
2023-04-16T08:20:41.018Z,5.20
2023-04-16T08:23:09.028Z,4.37
2023-04-16T08:25:37.027Z,3.90
2023-04-16T08:28:05.239Z,4.30
2023-04-16T08:30:33.169Z,4.37
2023-04-16T08:33:01.482Z,3.33
2023-04-16T08:35:30.832Z,3.03
2023-04-16T08:38:02.196Z,2.97
2023-04-16T08:40:30.700Z,2.93
2023-04-16T08:43:00.188Z,3.27
2023-04-16T08:45:28.237Z,3.40
2023-04-16T08:47:56.612Z,2.30
2023-04-16T08:50:25.219Z,3.23
2023-04-16T08:52:54.953Z,2.60
2023-04-16T08:55:24.576Z,3.10
2023-04-16T08:57:56.292Z,2.90
2023-04-16T09:00:24.328Z,3.17
2023-04-16T09:02:52.759Z,3.33
2023-04-16T09:05:25.471Z,2.90
2023-04-16T09:07:55.068Z,3.87
2023-04-16T09:10:23.212Z,2.93
2023-04-16T09:12:51.306Z,3.13
2023-04-16T09:15:19.204Z,3.20
2023-04-16T09:17:47.150Z,3.57
2023-04-16T09:20:16.087Z,3.37
2023-04-16T09:22:44.230Z,2.53
2023-04-16T09:25:13.528Z,2.40
2023-04-16T09:27:41.510Z,3.17
2023-04-16T09:30:23.195Z,3.83
2023-04-16T09:32:51.385Z,3.20
2023-04-16T09:35:19.779Z,2.83
2023-04-16T09:37:56.566Z,3.03
2023-04-16T09:40:27.771Z,2.70
2023-04-16T09:42:58.432Z,2.63
2023-04-16T09:45:26.399Z,2.40
2023-04-16T09:47:54.375Z,2.70
2023-04-16T09:50:22.386Z,2.20
2023-04-16T09:52:51.733Z,3.27
2023-04-16T09:55:24.134Z,3.03
2023-04-16T09:57:59.511Z,3.43
2023-04-16T10:00:27.437Z,3.73
2023-04-16T10:03:04.979Z,2.97
2023-04-16T10:05:33.031Z,3.83
2023-04-16T10:08:01.698Z,2.90
2023-04-16T10:10:29.774Z,3.77
2023-04-16T10:12:59.133Z,3.67
2023-04-16T10:15:27.077Z,3.60
2023-04-16T10:17:55.256Z,3.90
2023-04-16T10:20:23.756Z,3.83
2023-04-16T10:22:51.692Z,3.30
2023-04-16T10:25:19.725Z,3.97
2023-04-16T10:27:47.699Z,2.93
2023-04-16T10:30:17.080Z,2.70
2023-04-16T10:32:45.476Z,3.47
2023-04-16T10:35:16.754Z,2.50
2023-04-16T10:37:45.380Z,3.10
2023-04-16T10:40:31.221Z,3.43
2023-04-16T10:42:59.343Z,2.50
2023-04-16T10:45:33.169Z,3.20
2023-04-16T10:48:01.221Z,3.17
2023-04-16T10:50:36.149Z,2.00
2023-04-16T10:53:25.431Z,3.20
2023-04-16T10:56:00.290Z,2.70
2023-04-16T10:58:28.723Z,3.37
2023-04-16T11:01:00.233Z,2.70
2023-04-16T11:03:32.244Z,2.50
2023-04-16T11:06:12.550Z,2.77
2023-04-16T11:08:53.914Z,2.77
2023-04-16T11:11:23.364Z,2.57
2023-04-16T11:13:51.279Z,3.47
2023-04-16T11:16:20.604Z,2.87
2023-04-16T11:18:51.333Z,2.30
2023-04-16T11:21:19.840Z,2.87
2023-04-16T11:23:49.448Z,2.80
2023-04-16T11:26:27.468Z,3.20
2023-04-16T11:28:56.280Z,2.83
2023-04-16T11:31:27.332Z,3.10
2023-04-16T11:33:57.282Z,2.60
2023-04-16T11:36:27.481Z,3.73
2023-04-16T11:39:02.542Z,2.30
2023-04-16T11:41:30.539Z,3.37
2023-04-16T11:43:58.526Z,2.63
2023-04-16T11:46:40.722Z,2.53
2023-04-16T11:49:09.002Z,2.80
2023-04-16T11:51:41.234Z,2.10
2023-04-16T11:54:11.862Z,2.47
2023-04-16T11:56:40.410Z,2.80
2023-04-16T11:59:11.991Z,2.13
2023-04-16T12:01:42.318Z,3.20
2023-04-16T12:04:10.572Z,2.47
2023-04-16T12:06:38.727Z,2.57
2023-04-16T12:09:24.334Z,2.80
2023-04-16T12:11:52.412Z,3.33
2023-04-16T12:14:20.449Z,2.90
2023-04-16T12:16:49.813Z,3.30
2023-04-16T12:19:17.791Z,3.63
2023-04-16T12:21:46.350Z,3.60
2023-04-16T12:24:15.416Z,3.03
2023-04-16T12:26:43.982Z,4.10
2023-04-16T12:29:19.521Z,3.03
2023-04-16T12:31:49.052Z,3.47
2023-04-16T12:34:17.364Z,3.20
2023-04-16T12:36:45.927Z,3.07
2023-04-16T12:39:14.789Z,2.60
2023-04-16T12:41:43.711Z,3.90
2023-04-16T12:44:13.349Z,3.27
2023-04-16T12:46:41.784Z,3.00
2023-04-16T12:49:11.610Z,2.40
2023-04-16T12:51:39.882Z,3.67
2023-04-16T12:54:08.516Z,3.00
2023-04-16T12:56:36.825Z,2.97
2023-04-16T12:59:04.994Z,2.70
2023-04-16T13:01:36.150Z,3.10
2023-04-16T13:04:04.283Z,3.40
2023-04-16T13:06:33.892Z,3.57
2023-04-16T13:09:01.893Z,2.60
2023-04-16T13:11:29.864Z,3.00
2023-04-16T13:13:58.252Z,3.27
2023-04-16T13:16:26.347Z,3.10
2023-04-16T13:18:54.441Z,3.63
2023-04-16T13:21:23.790Z,3.10
2023-04-16T13:23:54.057Z,3.23
2023-04-16T13:26:22.179Z,3.13
2023-04-16T13:28:50.169Z,2.60
2023-04-16T13:31:20.578Z,3.20
2023-04-16T13:33:48.655Z,2.90
2023-04-16T13:36:16.610Z,3.43
2023-04-16T13:38:44.638Z,3.10
2023-04-16T13:41:13.946Z,2.27
2023-04-16T13:43:41.971Z,2.20
2023-04-16T13:46:09.914Z,2.50
2023-04-16T13:48:37.912Z,2.80
2023-04-16T13:51:06.078Z,2.43
2023-04-16T13:53:34.062Z,2.30
2023-04-16T13:56:03.717Z,2.23
2023-04-16T13:58:33.020Z,2.40
2023-04-16T14:01:01.264Z,1.80
2023-04-16T14:03:29.388Z,3.07
2023-04-16T14:05:57.400Z,2.40
2023-04-16T14:08:25.441Z,2.60
2023-04-16T14:10:55.592Z,1.90
2023-04-16T14:13:23.675Z,3.10
2023-04-16T14:15:54.603Z,3.10
2023-04-16T14:18:22.552Z,2.03
2023-04-16T14:20:50.732Z,2.10
2023-04-16T14:23:18.782Z,2.50
2023-04-16T14:25:46.729Z,2.30
2023-04-16T14:28:15.720Z,2.00
2023-04-16T14:30:43.887Z,3.03
2023-04-16T14:33:13.265Z,2.77
2023-04-16T14:35:41.230Z,2.80
2023-04-16T14:38:09.260Z,3.60
2023-04-16T14:40:37.255Z,2.87
2023-04-16T14:43:05.383Z,3.07
2023-04-16T14:45:33.386Z,2.50
2023-04-16T14:48:01.463Z,2.70
2023-04-16T14:50:30.950Z,2.40
2023-04-16T14:52:58.942Z,2.40
2023-04-16T14:55:26.927Z,2.37
2023-04-16T14:57:54.896Z,3.10
2023-04-16T15:00:23.691Z,3.47
2023-04-16T15:02:51.906Z,2.23
2023-04-16T15:05:19.978Z,2.00
2023-04-16T15:07:49.314Z,2.00
2023-04-16T15:10:17.419Z,3.00
2023-04-16T15:12:45.430Z,3.00
2023-04-16T15:15:13.387Z,2.07
2023-04-16T15:17:41.619Z,4.43
2023-04-16T15:20:10.691Z,2.53
2023-04-16T15:22:38.638Z,3.27
2023-04-16T15:25:08.949Z,6.67
2023-04-16T15:27:36.957Z,2.50
2023-04-16T15:30:06.523Z,2.50
2023-04-16T15:32:34.595Z,2.30
2023-04-16T15:35:03.579Z,2.60
2023-04-16T15:37:31.524Z,5.07
2023-04-16T15:39:59.486Z,2.67
2023-04-16T15:42:28.785Z,2.93
2023-04-16T15:44:56.708Z,2.60
2023-04-16T15:47:24.667Z,1.90
2023-04-16T15:49:52.623Z,2.20
2023-04-16T15:52:21.055Z,1.60
2023-04-16T15:54:49.001Z,2.20
2023-04-16T15:57:16.964Z,1.70
2023-04-16T15:59:59.541Z,1.70
2023-04-16T16:02:34.675Z,2.00
2023-04-16T16:05:03.349Z,2.07
2023-04-16T16:07:31.263Z,1.87
2023-04-16T16:09:59.260Z,1.63
2023-04-16T16:12:27.357Z,1.70
2023-04-16T16:14:56.832Z,2.00
2023-04-16T16:17:24.821Z,1.43
2023-04-16T16:19:52.839Z,1.90
2023-04-16T16:22:23.669Z,1.97
2023-04-16T16:24:52.060Z,2.20
2023-04-16T16:27:20.027Z,1.93
2023-04-16T16:29:48.023Z,1.33
2023-04-16T16:32:17.580Z,1.70
2023-04-16T16:34:45.692Z,2.20
2023-04-16T16:37:13.657Z,1.73
2023-04-16T16:39:41.647Z,1.83
2023-04-16T16:42:09.725Z,2.20
2023-04-16T16:44:38.003Z,2.03
2023-04-16T16:47:06.585Z,2.50
2023-04-16T16:49:36.022Z,2.40
2023-04-16T16:52:03.949Z,2.50
2023-04-16T16:54:32.028Z,2.50
2023-04-16T16:57:00.006Z,2.50
2023-04-16T16:59:27.940Z,2.83
2023-04-16T17:01:55.927Z,2.13
2023-04-16T17:04:24.088Z,2.53
2023-04-16T17:06:53.565Z,1.83
2023-04-16T17:09:21.538Z,1.80
2023-04-16T17:11:49.484Z,1.60
2023-04-16T17:14:17.440Z,2.40
2023-04-16T17:16:46.766Z,2.40
2023-04-16T17:19:15.416Z,1.40
2023-04-16T17:21:43.337Z,1.87
2023-04-16T17:24:12.815Z,1.77
2023-04-16T17:26:41.251Z,2.00
2023-04-16T17:29:09.262Z,2.37
2023-04-16T17:31:37.311Z,2.13
2023-04-16T17:34:06.367Z,1.60
2023-04-16T17:36:34.339Z,1.67
2023-04-16T17:39:02.291Z,2.80
2023-04-16T17:41:31.719Z,2.60
2023-04-16T17:43:59.695Z,2.60
2023-04-16T17:46:27.674Z,2.27
2023-04-16T17:48:55.656Z,2.40
2023-04-16T17:51:23.582Z,2.57
2023-04-16T17:53:51.946Z,2.07
2023-04-16T17:56:19.862Z,2.10
2023-04-16T17:58:49.154Z,1.87
2023-04-16T18:01:17.111Z,2.60
2023-04-16T18:03:45.454Z,2.50
2023-04-16T18:06:13.484Z,2.30
2023-04-16T18:08:41.445Z,1.90
2023-04-16T18:11:09.354Z,1.70
2023-04-16T18:13:37.310Z,1.87
2023-04-16T18:16:07.659Z,2.60
2023-04-16T18:18:35.769Z,2.93
2023-04-16T18:21:03.692Z,2.10
2023-04-16T18:23:31.674Z,2.47
2023-04-16T18:25:59.639Z,2.17
2023-04-16T18:28:27.930Z,1.93
2023-04-16T18:30:58.979Z,2.60
2023-04-16T18:33:52.411Z,2.47
2023-04-16T18:36:16.526Z,2.17
2023-04-16T18:38:59.331Z,2.20
2023-04-16T18:41:28.592Z,2.53
2023-04-16T18:43:56.582Z,2.20
2023-04-16T18:46:25.322Z,1.90
2023-04-16T18:48:54.791Z,2.37
2023-04-16T18:51:22.727Z,2.23
2023-04-16T18:53:50.734Z,2.10
2023-04-16T18:56:18.711Z,1.80
2023-04-16T18:58:47.857Z,1.70
2023-04-16T19:01:16.551Z,2.30
2023-04-16T19:03:45.608Z,1.93
2023-04-16T19:06:14.990Z,2.13
2023-04-16T19:08:42.969Z,1.93
2023-04-16T19:11:10.980Z,2.37
2023-04-16T19:13:39.301Z,3.60
2023-04-16T19:16:12.256Z,6.17
2023-04-16T19:18:40.369Z,5.30
2023-04-16T19:21:10.097Z,3.57
2023-04-16T19:23:39.453Z,2.50
2023-04-16T19:26:07.452Z,3.50
2023-04-16T19:28:35.395Z,2.90
2023-04-16T19:31:03.354Z,2.70
2023-04-16T19:33:31.406Z,2.43
2023-04-16T19:36:00.254Z,3.77
2023-04-16T19:38:28.191Z,3.13
2023-04-16T19:40:57.553Z,2.77
2023-04-16T19:43:25.465Z,2.60
2023-04-16T19:45:53.597Z,3.00
2023-04-16T19:48:21.604Z,3.07
2023-04-16T19:50:49.600Z,3.70
2023-04-16T19:53:17.574Z,3.03
2023-04-16T19:55:45.560Z,4.10
2023-04-16T19:58:15.088Z,4.03
2023-04-16T20:00:43.259Z,4.57
2023-04-16T20:03:11.426Z,4.40
2023-04-16T20:05:39.416Z,3.53
2023-04-16T20:08:07.699Z,4.00
2023-04-16T20:10:36.113Z,4.80
2023-04-16T20:13:04.995Z,3.53
2023-04-16T20:15:34.334Z,4.13
2023-04-16T20:18:02.327Z,3.73
2023-04-16T20:20:30.631Z,3.23
2023-04-16T20:22:59.714Z,3.80
2023-04-16T20:25:29.308Z,3.83
2023-04-16T20:27:57.318Z,3.43
2023-04-16T20:30:29.225Z,3.97
2023-04-16T20:32:58.649Z,4.97
2023-04-16T20:35:27.159Z,3.67
2023-04-16T20:37:55.125Z,4.97
2023-04-16T20:40:24.106Z,5.40
2023-04-16T20:42:52.215Z,4.23
2023-04-16T20:45:20.404Z,5.47
2023-04-16T20:47:48.379Z,4.17
2023-04-16T20:50:17.918Z,4.00
2023-04-16T20:52:45.909Z,6.07
2023-04-16T20:55:13.873Z,5.30
2023-04-16T20:57:41.801Z,5.30
2023-04-16T21:00:12.206Z,3.80
2023-04-16T21:02:40.444Z,3.40
2023-04-16T21:05:10.520Z,4.10
2023-04-16T21:07:39.838Z,3.47
2023-04-16T21:10:09.158Z,4.10
2023-04-16T21:12:37.289Z,4.30
2023-04-16T21:15:05.684Z,3.73
2023-04-16T21:17:33.660Z,3.60
2023-04-16T21:20:01.614Z,3.20
2023-04-16T21:22:29.587Z,3.90
2023-04-16T21:24:58.929Z,3.47
2023-04-16T21:27:26.876Z,4.23
2023-04-16T21:29:54.868Z,4.73
2023-04-16T21:32:22.892Z,4.60
2023-04-16T21:34:50.898Z,4.57
2023-04-16T21:37:18.845Z,5.23
2023-04-16T21:39:46.804Z,5.97
2023-04-16T21:42:16.104Z,4.80
2023-04-16T21:44:44.078Z,4.20
2023-04-16T21:47:12.038Z,4.23
2023-04-16T21:49:40.126Z,3.70
2023-04-16T21:52:14.099Z,3.10
2023-04-16T21:54:42.146Z,4.03
2023-04-16T21:57:10.138Z,3.80
2023-04-16T21:59:39.522Z,3.77
2023-04-16T22:02:07.578Z,4.00
2023-04-16T22:04:38.957Z,3.70
2023-04-16T22:07:08.809Z,3.93
2023-04-16T22:09:36.775Z,3.27
2023-04-16T22:12:06.913Z,2.50
2023-04-16T22:14:35.723Z,4.37
2023-04-16T22:17:05.052Z,3.87
2023-04-16T22:19:34.854Z,4.33
2023-04-16T22:22:02.854Z,4.27
2023-04-16T22:24:31.016Z,5.70
2023-04-16T22:26:58.989Z,5.50
2023-04-16T22:29:26.938Z,5.50
2023-04-16T22:31:55.212Z,5.07
2023-04-16T22:34:24.582Z,4.60
2023-04-16T22:36:52.554Z,4.60
2023-04-16T22:39:20.511Z,5.20
2023-04-16T22:41:48.505Z,4.33
2023-04-16T22:44:16.416Z,5.00
2023-04-16T22:46:45.183Z,4.43
2023-04-16T22:49:13.420Z,4.27
2023-04-16T22:51:43.448Z,3.83
2023-04-16T22:54:13.768Z,3.97
2023-04-16T22:56:42.006Z,3.30
2023-04-16T22:59:10.202Z,4.23
2023-04-16T23:01:38.663Z,3.40
2023-04-16T23:04:06.705Z,3.30
2023-04-16T23:06:34.660Z,3.33
2023-04-16T23:09:05.099Z,2.67
2023-04-16T23:11:33.097Z,3.57
2023-04-16T23:14:01.056Z,3.47
2023-04-16T23:16:29.021Z,4.27
2023-04-16T23:18:57.016Z,5.80
2023-04-16T23:21:24.971Z,5.60
2023-04-16T23:23:53.107Z,5.90
2023-04-16T23:26:22.411Z,7.07
2023-04-16T23:28:50.393Z,6.67
2023-04-16T23:31:18.413Z,7.67
2023-04-16T23:33:46.425Z,7.00
2023-04-16T23:36:14.412Z,5.30
2023-04-16T23:38:42.367Z,5.43
2023-04-16T23:41:10.334Z,5.23
2023-04-16T23:43:40.799Z,5.00
2023-04-16T23:46:08.832Z,5.47
2023-04-16T23:48:36.796Z,4.30
2023-04-16T23:51:05.199Z,5.27
2023-04-16T23:53:33.128Z,6.57
2023-04-16T23:56:01.041Z,5.30
2023-04-16T23:58:28.995Z,4.80
